createdAt,value
2023-03-29T00:02:40.320Z,62.85
2023-03-29T00:05:35.290Z,63.35
2023-03-29T00:08:25.163Z,63.40
2023-03-29T00:11:00.860Z,63.82
2023-03-29T00:13:49.191Z,64.19
2023-03-29T00:16:24.581Z,64.27
2023-03-29T00:19:13.164Z,64.41
2023-03-29T00:21:54.339Z,64.50
2023-03-29T00:24:35.155Z,64.58
2023-03-29T00:27:16.689Z,64.52
2023-03-29T00:29:58.141Z,64.58
2023-03-29T00:32:47.230Z,64.52
2023-03-29T00:35:21.835Z,64.45
2023-03-29T00:38:10.236Z,64.51
2023-03-29T00:41:05.311Z,64.51
2023-03-29T00:44:01.134Z,64.43
2023-03-29T00:46:37.352Z,64.67
2023-03-29T00:49:25.156Z,64.77
2023-03-29T00:52:06.343Z,64.91
2023-03-29T00:54:50.175Z,64.90
2023-03-29T00:57:40.158Z,64.83
2023-03-29T01:00:20.998Z,64.89
2023-03-29T01:03:11.238Z,64.92
2023-03-29T01:06:00.155Z,65.00
2023-03-29T01:08:58.146Z,65.01
2023-03-29T01:11:36.494Z,64.92
2023-03-29T01:14:37.133Z,64.90
2023-03-29T01:17:13.154Z,64.75
2023-03-29T01:20:07.137Z,64.61
2023-03-29T01:22:48.317Z,64.51
2023-03-29T01:25:46.187Z,64.77
2023-03-29T01:28:36.141Z,64.99
2023-03-29T01:31:29.182Z,64.72
2023-03-29T01:34:27.137Z,64.83
2023-03-29T01:37:22.199Z,64.64
2023-03-29T01:39:58.300Z,64.58
2023-03-29T01:43:08.126Z,64.59
2023-03-29T01:46:02.174Z,64.51
2023-03-29T01:49:01.182Z,64.64
2023-03-29T01:52:00.186Z,64.49
2023-03-29T01:54:47.140Z,64.45
2023-03-29T01:57:30.009Z,64.59
2023-03-29T02:00:18.136Z,64.51
2023-03-29T02:03:01.405Z,64.63
2023-03-29T02:05:45.217Z,64.68
2023-03-29T02:08:27.317Z,64.71
2023-03-29T02:11:16.154Z,64.69
2023-03-29T02:13:57.353Z,64.83
2023-03-29T02:16:43.132Z,64.80
2023-03-29T02:19:32.124Z,65.18
2023-03-29T02:22:10.436Z,65.56
2023-03-29T02:24:59.360Z,65.68
2023-03-29T02:27:41.161Z,66.18
2023-03-29T02:30:24.268Z,66.43
2023-03-29T02:33:13.116Z,66.56
2023-03-29T02:36:31.118Z,66.86
2023-03-29T02:39:06.350Z,66.82
2023-03-29T02:41:57.126Z,66.74
2023-03-29T02:44:33.904Z,66.88
2023-03-29T02:47:39.198Z,66.85
2023-03-29T02:50:13.687Z,66.92
2023-03-29T02:53:08.124Z,66.93
2023-03-29T02:55:42.712Z,66.96
2023-03-29T02:58:33.122Z,67.07
2023-03-29T03:01:14.100Z,67.06
2023-03-29T03:04:02.174Z,67.23
2023-03-29T03:06:39.411Z,67.21
2023-03-29T03:09:27.118Z,66.93
2023-03-29T03:12:01.633Z,66.69
2023-03-29T03:14:49.469Z,66.38
2023-03-29T03:17:31.300Z,66.18
2023-03-29T03:20:17.236Z,66.02
2023-03-29T03:23:05.192Z,65.83
2023-03-29T03:25:41.268Z,65.59
2023-03-29T03:28:31.136Z,65.58
2023-03-29T03:31:13.140Z,65.55
2023-03-29T03:34:08.092Z,65.46
2023-03-29T03:36:56.105Z,65.43
2023-03-29T03:39:31.674Z,65.52
2023-03-29T03:42:19.130Z,65.58
2023-03-29T03:44:55.214Z,65.67
2023-03-29T03:47:44.130Z,65.62
2023-03-29T03:50:26.138Z,65.60
2023-03-29T03:53:21.111Z,65.63
2023-03-29T03:56:15.119Z,65.66
2023-03-29T03:58:50.223Z,65.64
2023-03-29T04:01:38.193Z,65.70
2023-03-29T04:04:13.335Z,65.76
2023-03-29T04:07:01.076Z,65.80
2023-03-29T04:09:46.105Z,66.09
2023-03-29T04:12:41.085Z,66.34
2023-03-29T04:15:29.126Z,66.57
2023-03-29T04:18:14.168Z,66.59
2023-03-29T04:21:09.113Z,66.73
2023-03-29T04:23:57.091Z,66.78
2023-03-29T04:26:32.205Z,66.66
2023-03-29T04:29:20.080Z,66.53
2023-03-29T04:31:54.216Z,66.56
2023-03-29T04:34:42.135Z,66.55
2023-03-29T04:37:22.257Z,66.58
2023-03-29T04:40:16.105Z,66.73
2023-03-29T04:42:51.880Z,66.62
2023-03-29T04:45:40.128Z,66.71
2023-03-29T04:48:15.805Z,66.83
2023-03-29T04:51:04.206Z,66.91
2023-03-29T04:53:39.227Z,66.89
2023-03-29T04:56:27.083Z,66.73
2023-03-29T04:59:09.194Z,67.06
2023-03-29T05:01:57.155Z,66.97
2023-03-29T05:04:33.360Z,67.16
2023-03-29T05:07:22.099Z,67.00
2023-03-29T05:09:57.254Z,66.53
2023-03-29T05:12:45.089Z,66.36
2023-03-29T05:15:27.095Z,66.19
2023-03-29T05:18:15.080Z,65.92
2023-03-29T05:20:50.223Z,65.58
2023-03-29T05:23:38.080Z,65.62
2023-03-29T05:26:22.099Z,65.15
2023-03-29T05:29:17.094Z,65.08
2023-03-29T05:32:06.103Z,65.01
2023-03-29T05:34:41.296Z,64.95
2023-03-29T05:37:29.102Z,64.69
2023-03-29T05:40:14.169Z,64.48
2023-03-29T05:43:10.112Z,64.18
2023-03-29T05:46:03.202Z,63.84
2023-03-29T05:48:45.148Z,63.80
2023-03-29T05:51:40.157Z,63.15
2023-03-29T05:54:28.083Z,62.98
2023-03-29T05:57:09.314Z,62.48
2023-03-29T05:59:51.085Z,61.84
2023-03-29T06:02:40.204Z,60.92
2023-03-29T06:05:29.078Z,60.54
2023-03-29T06:08:18.060Z,60.55
2023-03-29T06:10:52.210Z,60.56
2023-03-29T06:13:41.082Z,60.39
2023-03-29T06:16:17.239Z,60.71
2023-03-29T06:19:05.076Z,60.12
2023-03-29T06:21:47.091Z,59.94
2023-03-29T06:24:42.097Z,59.57
2023-03-29T06:27:37.069Z,59.26
2023-03-29T06:30:26.083Z,59.24
2023-03-29T06:33:08.084Z,59.27
2023-03-29T06:36:03.080Z,58.97
2023-03-29T06:38:53.099Z,58.40
2023-03-29T06:41:28.312Z,57.78
2023-03-29T06:44:17.092Z,57.47
2023-03-29T06:46:52.239Z,56.81
2023-03-29T06:49:40.054Z,56.51
2023-03-29T06:52:15.994Z,56.39
2023-03-29T06:55:04.070Z,55.40
2023-03-29T06:57:46.247Z,55.08
2023-03-29T07:00:35.059Z,55.13
2023-03-29T07:03:30.095Z,53.96
2023-03-29T07:06:27.054Z,53.91
2023-03-29T07:09:08.456Z,53.06
2023-03-29T07:11:57.060Z,53.23
2023-03-29T07:14:38.048Z,53.65
2023-03-29T07:17:26.104Z,53.66
2023-03-29T07:20:00.766Z,53.93
2023-03-29T07:22:49.064Z,53.66
2023-03-29T07:25:32.052Z,53.55
2023-03-29T07:28:20.069Z,52.67
2023-03-29T07:30:56.155Z,52.40
2023-03-29T07:33:45.213Z,52.10
2023-03-29T07:36:20.621Z,51.38
2023-03-29T07:39:09.058Z,50.49
2023-03-29T07:41:50.042Z,51.21
2023-03-29T07:44:31.219Z,49.79
2023-03-29T07:47:13.052Z,50.19
2023-03-29T07:49:54.337Z,50.41
2023-03-29T07:52:37.056Z,50.56
2023-03-29T07:55:20.311Z,50.13
2023-03-29T07:58:08.520Z,50.10
2023-03-29T08:00:44.365Z,49.47
2023-03-29T08:03:32.149Z,48.92
2023-03-29T08:06:10.212Z,49.55
2023-03-29T08:08:58.065Z,48.41
2023-03-29T08:11:40.041Z,48.98
2023-03-29T08:14:36.174Z,48.02
2023-03-29T08:17:24.135Z,47.71
2023-03-29T08:19:59.405Z,47.77
2023-03-29T08:22:47.513Z,47.44
2023-03-29T08:25:23.213Z,46.29
2023-03-29T08:28:12.066Z,47.12
2023-03-29T08:30:49.100Z,47.11
2023-03-29T08:33:37.048Z,47.20
2023-03-29T08:36:12.216Z,46.49
2023-03-29T08:39:00.174Z,46.16
2023-03-29T08:41:55.192Z,45.30
2023-03-29T08:45:01.459Z,44.53
2023-03-29T08:48:02.568Z,44.83
2023-03-29T08:50:49.266Z,45.06
2023-03-29T08:53:42.011Z,43.72
2023-03-29T08:56:34.257Z,42.19
2023-03-29T08:59:40.051Z,43.80
2023-03-29T09:02:20.686Z,43.70
2023-03-29T09:05:12.040Z,43.08
2023-03-29T09:08:01.049Z,42.41
2023-03-29T09:10:44.240Z,42.27
2023-03-29T09:13:43.122Z,38.69
2023-03-29T09:16:46.228Z,35.86
2023-03-29T09:19:53.047Z,33.61
2023-03-29T09:22:56.030Z,33.51
2023-03-29T09:25:56.274Z,33.14
2023-03-29T09:29:09.683Z,33.54
2023-03-29T09:31:58.076Z,33.64
2023-03-29T09:34:48.052Z,31.60
2023-03-29T09:37:51.032Z,32.63
2023-03-29T09:40:48.034Z,32.61
2023-03-29T09:43:25.179Z,33.08
2023-03-29T09:46:27.044Z,31.77
2023-03-29T09:49:03.176Z,32.66
2023-03-29T09:51:52.026Z,32.26
2023-03-29T09:54:27.174Z,30.88
2023-03-29T09:57:24.094Z,31.30
2023-03-29T09:59:59.710Z,31.37
2023-03-29T10:02:49.054Z,30.66
2023-03-29T10:05:25.206Z,30.13
2023-03-29T10:08:37.132Z,30.76
2023-03-29T10:11:24.147Z,30.65
2023-03-29T10:14:26.029Z,31.47
2023-03-29T10:17:04.251Z,30.72
2023-03-29T10:19:59.884Z,30.77
2023-03-29T10:22:42.375Z,31.58
2023-03-29T10:28:21.301Z,33.05
2023-03-29T10:31:10.089Z,32.22
2023-03-29T10:33:45.149Z,31.67
2023-03-29T10:36:34.034Z,32.04
2023-03-29T10:39:11.254Z,32.90
2023-03-29T10:42:00.048Z,34.24
2023-03-29T10:44:38.829Z,34.01
2023-03-29T10:47:28.035Z,37.68
2023-03-29T10:50:04.845Z,35.87
2023-03-29T10:52:53.022Z,34.05
2023-03-29T10:55:29.158Z,33.29
2023-03-29T10:58:23.046Z,33.14
2023-03-29T11:01:05.630Z,33.35
2023-03-29T11:04:15.233Z,33.18
2023-03-29T11:07:21.135Z,35.01
2023-03-29T11:10:25.789Z,35.83
2023-03-29T11:13:15.034Z,34.60
2023-03-29T11:16:15.364Z,34.83
2023-03-29T11:19:10.239Z,35.13
2023-03-29T11:22:30.180Z,34.89
2023-03-29T11:25:24.025Z,35.65
2023-03-29T11:28:18.241Z,35.99
2023-03-29T11:31:18.136Z,37.20
2023-03-29T11:34:17.799Z,36.60
2023-03-29T11:37:26.029Z,34.96
2023-03-29T11:40:23.200Z,35.63
2023-03-29T11:43:58.025Z,36.65
2023-03-29T11:46:46.041Z,36.78
2023-03-29T11:49:42.012Z,34.43
2023-03-29T11:52:40.045Z,33.53
2023-03-29T11:55:53.018Z,33.42
2023-03-29T11:58:48.021Z,34.51
2023-03-29T12:01:37.755Z,34.77
2023-03-29T12:04:38.256Z,34.39
2023-03-29T12:07:24.141Z,34.22
2023-03-29T12:10:25.041Z,35.17
2023-03-29T12:13:14.993Z,36.11
2023-03-29T12:16:06.027Z,34.48
2023-03-29T12:18:47.148Z,33.08
2023-03-29T12:21:36.004Z,34.77
2023-03-29T12:24:12.180Z,34.66
2023-03-29T12:27:23.095Z,32.95
2023-03-29T12:30:34.325Z,33.82
2023-03-29T12:33:38.003Z,33.58
2023-03-29T12:36:38.039Z,32.74
2023-03-29T12:39:27.430Z,32.13
2023-03-29T12:42:29.026Z,31.93
2023-03-29T12:45:10.400Z,32.35
2023-03-29T12:47:59.113Z,32.37
2023-03-29T12:50:43.364Z,31.64
2023-03-29T12:53:33.988Z,31.16
2023-03-29T12:56:12.854Z,29.56
2023-03-29T12:59:14.014Z,30.55
2023-03-29T13:02:10.796Z,30.55
2023-03-29T13:05:04.084Z,31.60
2023-03-29T13:07:52.887Z,31.23
2023-03-29T13:10:47.013Z,29.61
2023-03-29T13:13:43.999Z,27.72
2023-03-29T13:16:20.247Z,26.06
2023-03-29T13:19:22.035Z,24.67
2023-03-29T13:21:59.544Z,23.36
2023-03-29T13:24:54.042Z,21.96
2023-03-29T13:27:46.871Z,21.53
2023-03-29T13:31:03.273Z,21.36
2023-03-29T13:33:59.872Z,20.19
2023-03-29T13:37:05.312Z,20.11
2023-03-29T13:39:50.261Z,18.57
2023-03-29T13:42:48.086Z,18.79
2023-03-29T13:45:34.008Z,19.11
2023-03-29T13:48:40.246Z,18.52
2023-03-29T13:51:18.192Z,18.62
2023-03-29T13:54:15.231Z,18.33
2023-03-29T13:56:59.562Z,18.74
2023-03-29T13:59:58.050Z,17.19
2023-03-29T14:02:49.550Z,16.93
2023-03-29T14:06:01.293Z,17.56
2023-03-29T14:08:50.039Z,17.19
2023-03-29T14:11:43.017Z,16.63
2023-03-29T14:14:48.378Z,16.60
2023-03-29T14:17:46.010Z,17.89
2023-03-29T14:20:21.200Z,18.87
2023-03-29T14:23:16.521Z,17.94
2023-03-29T14:25:58.026Z,18.09
2023-03-29T14:28:53.022Z,18.34
2023-03-29T14:31:40.047Z,18.93
2023-03-29T14:34:23.208Z,20.57
2023-03-29T14:37:11.082Z,20.48
2023-03-29T14:39:45.966Z,20.65
2023-03-29T14:42:38.084Z,21.49
2023-03-29T14:45:15.149Z,22.27
2023-03-29T14:48:05.045Z,22.92
2023-03-29T14:51:00.021Z,25.64
2023-03-29T14:53:48.069Z,26.24
2023-03-29T14:56:25.642Z,25.59
2023-03-29T14:59:30.072Z,25.45
2023-03-29T15:02:05.150Z,25.40
2023-03-29T15:05:02.047Z,25.42
2023-03-29T15:07:40.075Z,25.39
2023-03-29T15:10:28.135Z,25.49
2023-03-29T15:13:03.703Z,25.41
2023-03-29T15:15:53.085Z,26.29
2023-03-29T15:19:03.024Z,26.22
2023-03-29T15:21:52.007Z,27.15
2023-03-29T15:24:44.017Z,28.28
2023-03-29T15:27:39.016Z,26.99
2023-03-29T15:30:38.043Z,27.17
2023-03-29T15:33:26.300Z,27.23
2023-03-29T15:36:16.095Z,26.61
2023-03-29T15:38:57.148Z,27.61
2023-03-29T15:41:38.006Z,28.23
2023-03-29T15:44:30.029Z,28.94
2023-03-29T15:47:10.386Z,29.57
2023-03-29T15:49:59.998Z,29.43
2023-03-29T15:52:34.715Z,30.04
2023-03-29T15:55:23.317Z,31.04
2023-03-29T15:57:58.505Z,32.07
2023-03-29T16:00:47.054Z,32.78
2023-03-29T16:03:29.222Z,33.38
2023-03-29T16:06:11.332Z,33.96
2023-03-29T16:08:59.044Z,34.45
2023-03-29T16:11:42.545Z,35.62
2023-03-29T16:14:32.774Z,37.16
2023-03-29T16:17:19.846Z,37.27
2023-03-29T16:20:02.028Z,36.97
2023-03-29T16:22:51.019Z,37.54
2023-03-29T16:25:32.044Z,38.17
2023-03-29T16:28:15.379Z,39.00
2023-03-29T16:30:57.015Z,39.20
2023-03-29T16:33:38.192Z,39.85
2023-03-29T16:36:19.046Z,40.17
2023-03-29T16:39:00.208Z,39.00
2023-03-29T16:41:41.097Z,38.54
2023-03-29T16:44:26.583Z,38.73
2023-03-29T16:47:08.365Z,39.26
2023-03-29T16:49:49.207Z,39.46
2023-03-29T16:52:32.048Z,39.90
2023-03-29T16:55:26.007Z,40.81
2023-03-29T16:58:00.455Z,41.44
2023-03-29T17:00:48.997Z,42.00
2023-03-29T17:03:24.163Z,42.39
2023-03-29T17:06:12.032Z,42.81
2023-03-29T17:09:07.007Z,43.10
2023-03-29T17:11:55.003Z,43.63
2023-03-29T17:14:36.997Z,44.39
2023-03-29T17:17:32.052Z,45.55
2023-03-29T17:20:20.161Z,46.17
2023-03-29T17:22:56.235Z,46.69
2023-03-29T17:25:44.001Z,46.79
2023-03-29T17:28:19.145Z,46.95
2023-03-29T17:31:14.017Z,47.49
2023-03-29T17:33:52.267Z,47.94
2023-03-29T17:36:40.005Z,48.21
2023-03-29T17:39:15.587Z,48.72
2023-03-29T17:42:04.006Z,49.09
2023-03-29T17:44:39.130Z,49.47
2023-03-29T17:47:27.024Z,50.27
2023-03-29T17:50:02.135Z,50.67
2023-03-29T17:52:49.992Z,50.77
2023-03-29T17:55:25.258Z,51.11
2023-03-29T17:58:13.004Z,51.40
2023-03-29T18:00:55.198Z,51.57
2023-03-29T18:03:50.225Z,51.64
2023-03-29T18:06:45.005Z,51.18
2023-03-29T18:09:40.621Z,51.34
2023-03-29T18:12:23.013Z,51.57
2023-03-29T18:15:04.372Z,51.14
2023-03-29T18:17:50.007Z,51.67
2023-03-29T18:20:47.098Z,52.37
2023-03-29T18:23:35.985Z,52.65
2023-03-29T18:26:11.163Z,52.49
2023-03-29T18:28:59.259Z,52.11
2023-03-29T18:31:35.391Z,52.33
2023-03-29T18:34:23.209Z,52.48
2023-03-29T18:36:58.297Z,52.91
2023-03-29T18:39:48.055Z,53.45
2023-03-29T18:42:30.015Z,53.79
2023-03-29T18:45:11.992Z,54.20
2023-03-29T18:48:00.189Z,54.34
2023-03-29T18:50:58.120Z,54.67
2023-03-29T18:53:48.066Z,54.94
2023-03-29T18:56:23.206Z,55.33
2023-03-29T18:59:13.003Z,55.66
2023-03-29T19:01:48.509Z,55.91
2023-03-29T19:04:44.232Z,56.10
2023-03-29T19:07:39.051Z,56.26
2023-03-29T19:10:33.983Z,56.53
2023-03-29T19:13:22.019Z,56.87
2023-03-29T19:15:59.260Z,57.21
2023-03-29T19:18:48.000Z,57.30
2023-03-29T19:21:30.005Z,57.56
2023-03-29T19:24:25.006Z,57.71
2023-03-29T19:27:13.558Z,57.93
2023-03-29T19:29:57.655Z,58.06
2023-03-29T19:32:46.052Z,58.24
2023-03-29T19:35:21.525Z,58.52
2023-03-29T19:38:08.998Z,58.61
2023-03-29T19:40:45.224Z,58.92
2023-03-29T19:43:33.978Z,59.23
2023-03-29T19:46:16.520Z,59.50
2023-03-29T19:49:05.993Z,59.67
2023-03-29T19:51:41.280Z,59.88
2023-03-29T19:54:29.192Z,59.99
2023-03-29T19:57:14.039Z,60.15
2023-03-29T20:00:08.986Z,60.24
2023-03-29T20:02:57.064Z,60.42
2023-03-29T20:05:32.174Z,60.58
2023-03-29T20:08:19.962Z,60.93
2023-03-29T20:10:54.115Z,61.01
2023-03-29T20:13:42.061Z,61.02
2023-03-29T20:16:24.586Z,61.10
2023-03-29T20:19:14.221Z,61.49
2023-03-29T20:21:50.884Z,61.67
2023-03-29T20:24:38.977Z,61.95
2023-03-29T20:27:15.983Z,62.22
2023-03-29T20:30:04.048Z,62.43
2023-03-29T20:32:39.150Z,62.72
2023-03-29T20:35:26.990Z,63.00
2023-03-29T20:38:09.138Z,63.39
2023-03-29T20:40:50.988Z,63.75
2023-03-29T20:43:37.763Z,64.20
2023-03-29T20:46:26.185Z,64.51
2023-03-29T20:49:09.100Z,64.81
2023-03-29T20:51:51.030Z,64.90
2023-03-29T20:54:40.069Z,65.08
2023-03-29T20:57:17.549Z,65.37
2023-03-29T21:00:06.018Z,65.34
2023-03-29T21:02:40.749Z,65.34
2023-03-29T21:05:28.968Z,65.30
2023-03-29T21:08:04.478Z,65.06
2023-03-29T21:10:52.038Z,65.10
2023-03-29T21:13:35.758Z,65.11
2023-03-29T21:16:25.944Z,65.00
2023-03-29T21:19:00.743Z,64.75
2023-03-29T21:21:50.061Z,64.59
2023-03-29T21:24:24.481Z,64.25
2023-03-29T21:27:12.981Z,63.99
2023-03-29T21:29:48.273Z,64.12
2023-03-29T21:32:35.979Z,64.28
2023-03-29T21:35:11.322Z,64.37
2023-03-29T21:37:58.960Z,64.49
2023-03-29T21:40:36.234Z,64.57
2023-03-29T21:43:23.966Z,64.64
2023-03-29T21:46:04.971Z,64.69
2023-03-29T21:48:46.101Z,64.87
2023-03-29T21:51:26.982Z,65.25
2023-03-29T21:54:08.195Z,65.51
2023-03-29T21:56:52.103Z,65.61
2023-03-29T21:59:33.119Z,65.86
2023-03-29T22:02:14.051Z,66.30
2023-03-29T22:04:55.127Z,66.38
2023-03-29T22:07:35.953Z,66.53
2023-03-29T22:10:22.903Z,66.85
2023-03-29T22:13:03.949Z,67.06
2023-03-29T22:15:45.296Z,67.47
2023-03-29T22:18:28.078Z,67.95
2023-03-29T22:21:09.120Z,67.73
2023-03-29T22:23:51.971Z,67.77
2023-03-29T22:26:42.956Z,68.05
2023-03-29T22:29:17.439Z,68.15
2023-03-29T22:32:05.154Z,67.75
2023-03-29T22:34:40.611Z,67.60
2023-03-29T22:37:28.958Z,67.69
2023-03-29T22:40:04.546Z,67.75
2023-03-29T22:42:52.952Z,68.00
2023-03-29T22:45:27.611Z,68.48
2023-03-29T22:48:15.953Z,68.88
2023-03-29T22:50:50.685Z,68.88
2023-03-29T22:53:38.995Z,68.62
2023-03-29T22:56:14.517Z,68.64
2023-03-29T22:59:01.936Z,69.06
2023-03-29T23:01:57.149Z,69.06
2023-03-29T23:04:45.003Z,69.23
2023-03-29T23:07:27.003Z,69.20
2023-03-29T23:10:22.942Z,69.03
2023-03-29T23:13:16.961Z,69.32
2023-03-29T23:15:54.705Z,70.03
2023-03-29T23:18:43.926Z,70.57
2023-03-29T23:21:18.077Z,70.67
2023-03-29T23:24:06.025Z,70.58
2023-03-29T23:26:48.019Z,70.49
2023-03-29T23:29:44.973Z,70.22
2023-03-29T23:32:33.000Z,69.94
2023-03-29T23:35:14.953Z,69.47
2023-03-29T23:38:02.930Z,69.23
2023-03-29T23:40:38.140Z,69.26
2023-03-29T23:43:26.011Z,69.22
2023-03-29T23:46:08.111Z,69.24
2023-03-29T23:48:56.946Z,69.29
2023-03-29T23:51:39.328Z,69.41
2023-03-29T23:54:21.939Z,69.32
2023-03-29T23:57:03.106Z,69.45
2023-03-29T23:59:43.949Z,69.72
